Time;durP1;ratioP1;P1;durP2;ratioP2;P2;SDS_P1;SDS_P2;PMS_P1;PMS_P2;Temp;Humidity;BMP_temperature;BMP_pressure;BME280_temperature;BME280_humidity;BME280_pressure;Samples;Min_cycle;Max_cycle;Signal;HPM_P1;HPM_P2
2023/09/28 00:02:43;;;;;;;18.38;11.27;;;;;;;15.03;97.68;100793.03;5128686;28;20043;-63
2023/09/28 00:05:10;;;;;;;16.63;12.60;;;;;;;14.95;97.61;100782.75;5128284;28;20396;-62
2023/09/28 00:07:36;;;;;;;12.25;8.68;;;;;;;14.94;97.56;100785.41;5128060;28;20043;-63
2023/09/28 00:10:03;;;;;;;19.05;12.55;;;;;;;15.04;97.21;100792.16;5128079;28;20110;-62
2023/09/28 00:12:28;;;;;;;15.35;11.43;;;;;;;15.08;96.74;100796.44;5128262;28;20012;-62
2023/09/28 00:14:54;;;;;;;17.17;11.75;;;;;;;15.09;96.81;100786.84;5128447;28;20137;-62
2023/09/28 00:17:19;;;;;;;12.85;10.68;;;;;;;15.07;96.48;100788.63;5128220;28;20045;-63
2023/09/28 00:19:44;;;;;;;13.10;9.98;;;;;;;15.05;96.41;100782.59;5128053;28;20022;-62
2023/09/28 00:22:10;;;;;;;17.00;11.35;;;;;;;15.03;96.46;100776.53;5128053;28;20019;-63
2023/09/28 00:24:35;;;;;;;15.88;10.32;;;;;;;15.02;96.65;100783.50;5128120;28;20062;-63
2023/09/28 00:27:00;;;;;;;15.93;9.93;;;;;;;15.05;95.91;100779.97;5127991;28;20020;-63
2023/09/28 00:29:26;;;;;;;15.88;10.27;;;;;;;15.05;96.17;100778.19;5127676;28;20027;-62
2023/09/28 00:31:51;;;;;;;17.80;11.15;;;;;;;15.03;96.05;100774.75;5127909;28;20020;-62
2023/09/28 00:34:17;;;;;;;21.58;11.88;;;;;;;14.97;95.68;100754.84;5127932;28;20079;-62
2023/09/28 00:36:42;;;;;;;13.73;10.77;;;;;;;15.03;95.90;100766.91;5127728;28;20507;-62
2023/09/28 00:39:08;;;;;;;11.95;8.75;;;;;;;15.00;95.89;100759.13;5127835;28;20032;-62
2023/09/28 00:41:34;;;;;;;15.88;11.50;;;;;;;15.05;95.49;100762.50;5127981;28;20024;-62
2023/09/28 00:44:00;;;;;;;14.77;9.38;;;;;;;15.08;95.14;100770.28;5127577;28;20035;-62
2023/09/28 00:46:32;;;;;;;15.82;9.35;;;;;;;15.08;95.40;100772.91;5127756;28;20028;-63
2023/09/28 00:48:58;;;;;;;;;;;;;;;15.14;94.63;100773.66;5128173;28;20471;-61
2023/09/28 00:51:26;;;;;;;12.50;8.55;;;;;;;15.08;94.43;100765.06;5127523;28;19908;-62
2023/09/28 00:53:51;;;;;;;15.45;10.43;;;;;;;15.05;94.88;100757.28;5127232;28;20035;-62
2023/09/28 00:56:18;;;;;;;18.27;9.60;;;;;;;15.10;94.16;100758.06;5127481;28;20016;-63
2023/09/28 00:58:46;;;;;;;10.13;8.40;;;;;;;15.07;93.73;100759.84;5127274;28;20024;-63
2023/09/28 01:01:12;;;;;;;10.48;7.18;;;;;;;15.12;93.32;100752.78;5127273;28;20028;-62
2023/09/28 01:03:39;;;;;;;11.18;8.60;;;;;;;15.16;92.48;100750.97;5127396;28;20027;-63
2023/09/28 01:06:07;;;;;;;10.35;9.35;;;;;;;15.04;93.19;100729.41;5127324;28;20031;-62
2023/09/28 01:08:33;;;;;;;9.40;6.68;;;;;;;14.98;92.83;100719.09;5127243;28;20027;-62
2023/09/28 01:10:58;;;;;;;9.30;7.20;;;;;;;14.97;92.87;100726.06;5127245;28;20079;-63
2023/09/28 01:13:24;;;;;;;16.77;8.85;;;;;;;14.97;92.92;100726.06;5126921;28;20024;-61
2023/09/28 01:15:49;;;;;;;10.32;7.60;;;;;;;14.93;92.88;100724.44;5127259;28;20091;-63
2023/09/28 01:18:19;;;;;;;11.48;8.85;;;;;;;14.96;92.62;100740.06;5126960;28;20050;-62
2023/09/28 01:20:46;;;;;;;6.90;4.93;;;;;;;15.07;91.92;100741.56;5125943;28;20446;-62
2023/09/28 01:23:11;;;;;;;10.07;7.57;;;;;;;14.99;91.94;100734.75;5126897;28;20020;-63
2023/09/28 01:25:38;;;;;;;12.85;7.32;;;;;;;15.00;92.03;100738.22;5126914;28;20341;-62
2023/09/28 01:28:05;;;;;;;12.77;7.32;;;;;;;15.01;91.55;100731.25;5126548;28;20079;-62
2023/09/28 01:30:31;;;;;;;7.93;5.80;;;;;;;15.04;91.22;100725.94;5126550;28;20023;-63
2023/09/28 01:32:56;;;;;;;8.00;5.13;;;;;;;15.03;91.11;100714.59;5126840;28;20023;-63
2023/09/28 01:35:22;;;;;;;9.23;8.25;;;;;;;14.93;91.49;100708.75;5126661;28;20348;-63
2023/09/28 01:37:50;;;;;;;9.45;7.93;;;;;;;14.91;91.75;100712.28;5126512;28;20058;-63
2023/09/28 01:40:16;;;;;;;13.50;6.78;;;;;;;14.92;91.39;100711.41;5126617;28;20049;-63
2023/09/28 01:42:50;;;;;;;11.65;7.43;;;;;;;14.94;91.01;100709.59;5102541;27;20375;-62
2023/09/28 01:45:16;;;;;;;7.93;4.82;;;;;;;14.94;90.66;100700.00;5102904;28;20111;-63
2023/09/28 01:47:41;;;;;;;4.60;3.85;;;;;;;14.93;90.60;100707.88;5084516;28;20024;-64
2023/09/28 01:50:07;;;;;;;12.15;8.57;;;;;;;14.91;90.69;100693.97;5102541;28;20024;-63
2023/09/28 01:52:33;;;;;;;5.85;3.17;;;;;;;14.89;90.38;100701.84;5102456;28;20021;-63
2023/09/28 01:54:59;;;;;;;8.95;5.30;;;;;;;14.85;90.55;100690.63;5102530;28;20024;-64
2023/09/28 01:57:24;;;;;;;8.52;6.45;;;;;;;14.82;90.89;100695.91;5102227;28;20032;-62
2023/09/28 01:59:49;;;;;;;5.10;4.13;;;;;;;14.85;90.52;100695.84;5102460;28;20020;-62
2023/09/28 02:02:20;;;;;;;9.93;7.22;;;;;;;14.85;90.37;100693.22;5101582;28;20016;-63
2023/09/28 02:04:46;;;;;;;6.65;4.55;;;;;;;14.85;90.19;100695.84;5102451;28;20028;-63
2023/09/28 02:07:11;;;;;;;7.60;6.82;;;;;;;14.89;89.75;100685.31;5102402;28;20016;-63
2023/09/28 02:09:37;;;;;;;6.82;5.35;;;;;;;14.93;89.09;100676.50;5102017;28;20024;-62
2023/09/28 02:12:03;;;;;;;8.82;7.15;;;;;;;14.85;89.13;100677.56;5102162;28;20028;-61
2023/09/28 02:14:29;;;;;;;7.97;5.28;;;;;;;14.84;89.04;100661.91;5102039;28;20100;-63
2023/09/28 02:16:55;;;;;;;6.68;4.65;;;;;;;14.82;88.99;100642.78;5102137;28;20552;-62
2023/09/28 02:19:22;;;;;;;14.52;7.20;;;;;;;14.77;89.38;100650.69;5101955;28;20054;-62
2023/09/28 02:21:47;;;;;;;8.10;5.50;;;;;;;14.72;90.31;100644.69;5102162;28;20020;-63
2023/09/28 02:24:13;;;;;;;8.13;5.43;;;;;;;14.80;89.44;100642.81;5102056;28;20039;-62
2023/09/28 02:26:39;;;;;;;5.38;4.75;;;;;;;14.74;89.30;100635.06;5101975;28;20388;-62
2023/09/28 02:29:05;;;;;;;8.65;5.85;;;;;;;14.81;89.00;100635.84;5101672;28;20062;-62
2023/09/28 02:31:31;;;;;;;7.40;5.70;;;;;;;14.89;88.64;100638.28;5101989;28;20030;-62
2023/09/28 02:33:57;;;;;;;7.13;5.65;;;;;;;14.85;88.47;100625.28;5101901;28;20020;-62
2023/09/28 02:36:22;;;;;;;6.10;3.65;;;;;;;14.82;89.02;100620.13;5100565;28;20088;-62
2023/09/28 02:38:48;;;;;;;7.40;4.80;;;;;;;14.86;88.67;100619.16;5101697;28;20028;-61
2023/09/28 02:41:17;;;;;;;7.68;5.85;;;;;;;14.94;87.64;100616.34;5101421;28;20052;-63
2023/09/28 02:43:42;;;;;;;6.80;3.80;;;;;;;14.89;87.60;100612.13;5101171;28;20030;-63
2023/09/28 02:46:07;;;;;;;10.30;5.50;;;;;;;14.85;87.79;100614.81;5101562;28;20048;-62
2023/09/28 02:48:33;;;;;;;6.47;5.68;;;;;;;14.77;88.33;100608.88;5101383;28;20024;-62
2023/09/28 02:50:59;;;;;;;1.10;0.77;;;;;;;14.86;87.85;100605.22;5101752;28;20020;-62
2023/09/28 02:53:24;;;;;;;2.35;2.15;;;;;;;14.80;87.48;100587.06;5092297;28;20044;-62
2023/09/28 02:55:50;;;;;;;3.25;2.15;;;;;;;14.85;87.84;100599.13;5087919;28;20020;-62
2023/09/28 02:58:16;;;;;;;6.25;5.18;;;;;;;14.76;87.84;100575.78;5087835;28;20055;-61
2023/09/28 03:00:42;;;;;;;2.20;2.05;;;;;;;14.81;87.95;100587.03;5087932;28;20024;-62
2023/09/28 03:03:09;;;;;;;3.60;2.55;;;;;;;14.82;87.72;100580.91;5087875;28;20496;-63
2023/09/28 03:05:37;;;;;;;4.35;2.88;;;;;;;14.76;87.97;100570.53;5087724;28;20044;-62
2023/09/28 03:08:04;;;;;;;9.68;5.30;;;;;;;14.75;88.17;100574.06;5087957;28;20025;-63
2023/09/28 03:10:31;;;;;;;3.92;3.53;;;;;;;14.83;87.76;100566.94;5087764;28;20380;-64
2023/09/28 03:12:56;;;;;;;4.43;2.63;;;;;;;14.84;87.67;100576.50;5087577;28;20029;-62
2023/09/28 03:15:22;;;;;;;3.72;2.83;;;;;;;14.84;87.29;100593.94;5087745;28;20027;-62
2023/09/28 03:17:47;;;;;;;5.93;4.28;;;;;;;14.80;87.99;100603.59;5087662;28;20024;-62
2023/09/28 03:20:17;;;;;;;7.03;4.82;;;;;;;14.82;87.75;100595.72;5087554;28;20028;-62
2023/09/28 03:22:43;;;;;;;7.57;4.72;;;;;;;14.81;87.61;100597.47;5087425;28;20024;-62
2023/09/28 03:25:13;;;;;;;5.40;3.83;;;;;;;14.83;87.60;100593.06;5087329;28;20035;-63
2023/09/28 03:27:40;;;;;;;1.77;1.67;;;;;;;14.92;86.94;100584.16;5086961;28;20055;-61
2023/09/28 03:30:09;;;;;;;4.45;3.90;;;;;;;14.82;87.41;100593.13;5087357;28;20039;-61
2023/09/28 03:32:34;;;;;;;6.07;5.45;;;;;;;14.93;85.90;100593.72;5087333;28;20025;-62
2023/09/28 03:35:00;;;;;;;4.35;2.70;;;;;;;14.96;85.96;100601.50;5087395;28;20125;-63
2023/09/28 03:37:27;;;;;;;1.30;1.15;;;;;;;15.04;85.28;100601.31;5087254;28;20021;-63
2023/09/28 03:39:52;;;;;;;3.10;2.90;;;;;;;14.88;85.74;100590.34;5087042;28;20048;-63
2023/09/28 03:42:18;;;;;;;8.57;4.53;;;;;;;14.77;86.26;100597.56;5085588;28;20044;-63
2023/09/28 03:44:43;;;;;;;6.13;4.00;;;;;;;14.75;86.45;100597.59;5086738;28;20035;-63
2023/09/28 03:47:08;;;;;;;4.45;4.05;;;;;;;14.70;86.96;100600.31;5087008;28;20025;-63
2023/09/28 03:49:34;;;;;;;4.72;3.50;;;;;;;14.77;86.82;100601.03;5086918;28;20038;-62
2023/09/28 03:52:02;;;;;;;4.53;4.10;;;;;;;14.83;85.74;100586.97;5087065;28;20047;-63
2023/09/28 03:54:27;;;;;;;6.88;4.53;;;;;;;14.79;86.07;100580.97;5086817;28;20076;-63
2023/09/28 03:56:53;;;;;;;5.57;4.55;;;;;;;14.80;86.19;100589.66;5086865;28;20028;-63
2023/09/28 03:59:18;;;;;;;3.75;3.38;;;;;;;14.78;86.09;100584.44;5086494;28;20028;-63
2023/09/28 04:01:44;;;;;;;2.17;2.03;;;;;;;14.86;85.45;100573.84;5086446;28;20358;-62
2023/09/28 04:04:10;;;;;;;2.97;2.78;;;;;;;14.98;84.42;100562.25;5085870;28;20024;-64
2023/09/28 04:06:35;;;;;;;2.40;2.20;;;;;;;14.93;84.74;100561.50;5086380;28;20105;-63
2023/09/28 04:09:00;;;;;;;2.53;2.33;;;;;;;14.93;84.52;100543.19;5086560;28;20025;-62
2023/09/28 04:11:28;;;;;;;2.05;1.83;;;;;;;14.74;85.35;100548.84;5086517;28;20023;-63
2023/09/28 04:13:53;;;;;;;5.07;3.33;;;;;;;14.69;85.90;100554.19;5086380;28;20103;-63
2023/09/28 04:16:18;;;;;;;2.17;2.05;;;;;;;14.76;85.85;100562.72;5086305;28;20024;-62
2023/09/28 04:18:44;;;;;;;4.28;3.10;;;;;;;14.75;85.81;100551.41;5086182;28;20024;-63
2023/09/28 04:21:09;;;;;;;4.25;3.85;;;;;;;14.80;85.72;100546.09;5084932;28;20104;-63
2023/09/28 04:23:35;;;;;;;2.45;2.25;;;;;;;14.82;86.11;100556.53;5086299;28;20028;-62
2023/09/28 04:26:00;;;;;;;4.85;3.58;;;;;;;14.95;84.88;100549.25;5085991;28;20025;-64
2023/09/28 04:28:25;;;;;;;4.40;3.13;;;;;;;14.92;85.21;100559.78;5085828;28;20039;-62
2023/09/28 04:30:52;;;;;;;2.83;2.30;;;;;;;14.93;85.23;100557.13;5085992;28;20107;-63
2023/09/28 04:33:17;;;;;;;1.15;1.10;;;;;;;14.85;85.76;100559.06;5086003;28;20025;-63
2023/09/28 04:35:43;;;;;;;6.15;2.80;;;;;;;14.82;86.00;100540.84;5086210;28;20103;-63
2023/09/28 04:38:08;;;;;;;1.73;1.58;;;;;;;14.79;86.23;100539.16;5085902;28;20180;-62
2023/09/28 04:40:33;;;;;;;2.40;2.20;;;;;;;14.71;86.73;100547.13;5085341;28;20060;-63
2023/09/28 04:42:59;;;;;;;2.05;1.85;;;;;;;14.66;87.20;100537.69;5085720;28;20028;-63
2023/09/28 04:45:24;;;;;;;4.05;3.45;;;;;;;14.71;86.66;100521.00;5085913;28;20056;-63
2023/09/28 04:47:50;;;;;;;5.30;2.45;;;;;;;14.55;87.59;100511.84;5085713;28;20016;-65
2023/09/28 04:50:16;;;;;;;10.13;5.30;;;;;;;14.65;87.13;100515.94;5085537;28;20388;-63
2023/09/28 04:52:43;;;;;;;4.25;3.63;;;;;;;14.66;87.54;100508.97;5085658;28;20035;-63
2023/09/28 04:55:10;;;;;;;1.98;1.83;;;;;;;14.79;87.22;100513.00;5085731;28;20025;-63
2023/09/28 04:57:35;;;;;;;7.47;3.70;;;;;;;14.77;87.12;100509.56;5085421;28;20028;-64
2023/09/28 05:00:01;;;;;;;3.63;3.30;;;;;;;14.90;87.29;100506.69;5085248;28;20028;-63
2023/09/28 05:02:26;;;;;;;2.67;2.25;;;;;;;14.81;88.12;100506.00;5085151;28;20036;-63
2023/09/28 05:04:51;;;;;;;3.83;2.70;;;;;;;14.86;88.16;100504.13;5085381;28;20035;-64
2023/09/28 05:07:17;;;;;;;7.03;5.65;;;;;;;15.00;87.50;100484.63;5085422;28;20562;-65
2023/09/28 05:09:44;;;;;;;2.67;2.42;;;;;;;15.01;87.44;100488.97;5085377;28;20089;-63
2023/09/28 05:12:10;;;;;;;3.15;2.83;;;;;;;15.08;86.94;100498.34;5085248;28;20086;-63
2023/09/28 05:14:35;;;;;;;4.82;3.13;;;;;;;15.05;87.50;100497.59;5085120;28;20032;-63
2023/09/28 05:17:01;;;;;;;6.03;5.20;;;;;;;15.06;87.04;100494.94;5090071;22;20063;-63
2023/09/28 05:19:26;;;;;;;6.32;4.97;;;;;;;14.95;87.82;100489.97;5084986;28;20058;-64
2023/09/28 05:21:52;;;;;;;5.13;4.38;;;;;;;15.01;87.54;100483.75;5066617;28;20021;-63
2023/09/28 05:24:17;;;;;;;3.20;2.60;;;;;;;15.04;87.57;100483.66;5085266;28;20021;-63
2023/09/28 05:26:42;;;;;;;3.47;3.17;;;;;;;15.06;86.76;100479.25;5084828;28;20017;-64
2023/09/28 05:29:08;;;;;;;2.58;2.38;;;;;;;15.17;86.69;100478.97;5084533;28;20071;-63
2023/09/28 05:31:33;;;;;;;3.53;3.20;;;;;;;15.16;86.62;100469.38;5085195;28;20016;-64
2023/09/28 05:33:59;;;;;;;1.95;1.83;;;;;;;15.35;85.56;100466.31;5085110;28;20032;-63
2023/09/28 05:36:24;;;;;;;3.03;2.80;;;;;;;15.39;85.01;100474.91;5085242;28;20020;-64
2023/09/28 05:38:50;;;;;;;4.35;3.08;;;;;;;15.26;85.89;100471.75;5083662;28;20025;-64
2023/09/28 05:41:15;;;;;;;1.77;1.13;;;;;;;15.38;85.51;100475.81;5085210;28;20023;-63
2023/09/28 05:43:41;;;;;;;4.68;3.78;;;;;;;15.41;85.07;100471.34;5083764;22;20057;-64
2023/09/28 05:46:09;;;;;;;7.18;3.88;;;;;;;15.52;85.09;100470.19;5044935;28;20021;-64
2023/09/28 05:48:36;;;;;;;3.75;3.35;;;;;;;15.45;85.32;100464.25;5069343;22;20063;-64
2023/09/28 05:51:01;;;;;;;0.70;0.70;;;;;;;15.53;85.07;100464.91;5064733;28;20041;-64
2023/09/28 05:53:28;;;;;;;3.60;3.03;;;;;;;15.45;85.96;100459.03;5064801;28;20028;-64
2023/09/28 05:55:54;;;;;;;6.95;4.50;;;;;;;15.61;85.20;100455.09;5064872;28;20021;-63
2023/09/28 05:58:19;;;;;;;4.65;4.15;;;;;;;15.76;85.23;100458.16;5064670;28;20028;-64
2023/09/28 06:00:45;;;;;;;6.00;4.57;;;;;;;15.87;85.75;100455.22;5064752;28;20021;-64
2023/09/28 06:03:11;;;;;;;6.53;3.50;;;;;;;15.97;85.36;100447.97;5064835;28;20031;-63
2023/09/28 06:05:36;;;;;;;6.32;3.47;;;;;;;16.04;85.56;100448.66;5064975;28;20045;-64
2023/09/28 06:08:01;;;;;;;5.82;3.78;;;;;;;16.13;85.37;100434.41;5064773;28;20048;-64
2023/09/28 06:10:27;;;;;;;6.05;4.90;;;;;;;16.14;85.80;100429.13;5064814;28;20025;-63
2023/09/28 06:12:52;;;;;;;7.43;5.53;;;;;;;16.22;84.60;100415.78;5064382;28;20044;-64
2023/09/28 06:15:18;;;;;;;6.93;5.75;;;;;;;16.27;83.70;100415.63;5069335;23;20117;-64
2023/09/28 06:17:43;;;;;;;9.27;6.43;;;;;;;16.20;84.20;100414.97;5064420;28;20032;-64
2023/09/28 06:20:09;;;;;;;7.75;5.30;;;;;;;16.14;84.26;100409.94;5064143;28;20025;-63
2023/09/28 06:22:35;;;;;;;7.45;4.13;;;;;;;16.16;84.54;100402.88;5064472;28;20055;-63
2023/09/28 06:25:02;;;;;;;6.68;3.83;;;;;;;16.06;84.18;100376.13;5064550;28;20025;-63
2023/09/28 06:27:28;;;;;;;9.52;5.32;;;;;;;16.16;83.80;100388.03;5064682;28;20028;-64
2023/09/28 06:29:54;;;;;;;7.95;5.72;;;;;;;16.03;84.89;100384.09;5068114;28;20084;-63
2023/09/28 06:32:22;;;;;;;10.48;6.60;;;;;;;16.10;84.56;100394.31;5068168;28;20024;-62
2023/09/28 06:34:48;;;;;;;7.13;5.05;;;;;;;16.04;84.67;100396.31;5067994;28;20025;-63
2023/09/28 06:37:13;;;;;;;5.22;3.95;;;;;;;15.97;85.40;100390.34;5068197;28;20032;-63
2023/09/28 06:39:39;;;;;;;8.93;6.35;;;;;;;16.03;85.03;100386.72;5067944;28;20025;-63
2023/09/28 06:42:04;;;;;;;13.35;6.10;;;;;;;15.85;85.74;100387.22;5067906;28;20612;-63
2023/09/28 06:44:30;;;;;;;10.90;7.22;;;;;;;15.84;86.24;100401.22;5083073;28;20041;-63
2023/09/28 06:46:57;;;;;;;5.22;4.10;;;;;;;15.84;86.67;100393.38;5067710;28;20051;-63
2023/09/28 06:49:23;;;;;;;6.05;4.85;;;;;;;15.86;86.64;100390.69;5067650;28;20096;-63
2023/09/28 06:51:49;;;;;;;11.00;7.43;;;;;;;15.81;86.98;100393.47;5067789;28;20488;-63
2023/09/28 06:54:17;;;;;;;7.22;5.93;;;;;;;15.82;87.78;100379.47;5067446;28;20092;-63
2023/09/28 06:56:42;;;;;;;5.25;4.32;;;;;;;15.92;87.47;100382.66;5067660;28;20031;-63
2023/09/28 06:59:07;;;;;;;6.03;3.85;;;;;;;15.92;87.52;100372.19;5067174;28;20029;-63
2023/09/28 07:01:35;;;;;;;9.68;6.60;;;;;;;16.11;86.71;100374.22;5067013;28;20028;-63
2023/09/28 07:04:00;;;;;;;9.57;6.55;;;;;;;16.06;87.60;100365.66;5067262;28;20077;-63
2023/09/28 07:06:26;;;;;;;8.98;5.43;;;;;;;16.14;87.44;100368.03;5067472;28;20025;-63
2023/09/28 07:08:52;;;;;;;11.40;7.63;;;;;;;16.21;87.28;100356.47;5067450;28;20040;-64
2023/09/28 07:11:19;;;;;;;9.90;6.43;;;;;;;16.20;87.75;100363.47;5087566;28;20500;-63
2023/09/28 07:13:44;;;;;;;7.13;5.82;;;;;;;16.30;87.84;100364.00;5087583;28;20028;-63
2023/09/28 07:16:10;;;;;;;7.38;5.90;;;;;;;16.37;87.37;100366.44;5087201;28;20075;-63
2023/09/28 07:18:36;;;;;;;13.65;7.80;;;;;;;16.42;87.95;100380.25;5087596;28;20032;-63
2023/09/28 07:21:02;;;;;;;10.23;5.60;;;;;;;16.55;88.01;100368.41;5086966;28;20044;-63
2023/09/28 07:23:28;;;;;;;18.45;9.77;;;;;;;16.71;87.74;100365.25;5087337;28;20036;-63
2023/09/28 07:25:53;;;;;;;13.63;7.90;;;;;;;16.92;86.57;100357.56;5094978;22;20032;-64
2023/09/28 07:28:20;;;;;;;10.43;7.57;;;;;;;16.92;86.98;100363.66;5125644;22;20131;-64
2023/09/28 07:30:45;;;;;;;13.80;8.65;;;;;;;17.08;85.02;100361.38;5107510;28;20031;-63
2023/09/28 07:33:13;;;;;;;9.15;7.78;;;;;;;16.91;85.81;100348.84;5107325;28;20024;-63
2023/09/28 07:35:39;;;;;;;8.20;5.78;;;;;;;16.90;87.05;100349.75;5107715;28;20019;-63
2023/09/28 07:38:04;;;;;;;13.40;7.80;;;;;;;17.13;85.20;100355.09;5107386;28;20048;-64
2023/09/28 07:40:30;;;;;;;8.88;6.40;;;;;;;16.95;86.31;100349.56;5107196;28;20020;-64
2023/09/28 07:42:55;;;;;;;12.60;8.27;;;;;;;17.04;85.96;100337.91;5107080;28;20429;-63
2023/09/28 07:45:20;;;;;;;11.75;8.45;;;;;;;16.93;86.27;100326.03;5107291;28;20103;-63
2023/09/28 07:47:46;;;;;;;8.45;4.82;;;;;;;17.15;85.47;100334.91;5107070;28;20105;-63
2023/09/28 07:50:14;;;;;;;6.68;5.72;;;;;;;17.12;85.66;100342.91;5106959;28;20024;-63
2023/09/28 07:52:40;;;;;;;11.57;8.05;;;;;;;17.04;86.12;100332.66;5112137;22;20083;-63
2023/09/28 07:55:06;;;;;;;11.70;7.38;;;;;;;17.04;86.56;100340.53;5125498;22;20029;-63
2023/09/28 07:57:32;;;;;;;12.73;7.55;;;;;;;17.04;86.89;100328.28;5131976;22;20066;-64
2023/09/28 07:59:58;;;;;;;10.55;7.63;;;;;;;17.05;86.81;100332.59;5132338;22;20043;-61
2023/09/28 08:02:23;;;;;;;8.02;6.28;;;;;;;17.18;86.48;100340.03;5127261;28;20015;-60
2023/09/28 08:04:48;;;;;;;12.82;7.93;;;;;;;17.19;86.78;100342.63;5127056;28;20566;-61
2023/09/28 08:07:15;;;;;;;6.05;4.78;;;;;;;17.22;86.53;100337.25;5127300;28;20098;-61
2023/09/28 08:09:42;;;;;;;13.35;7.57;;;;;;;17.33;86.23;100334.22;5127025;28;20023;-61
2023/09/28 08:12:08;;;;;;;12.43;7.70;;;;;;;17.27;86.75;100328.38;5108616;28;20019;-61
2023/09/28 08:14:33;;;;;;;4.72;3.97;;;;;;;17.37;87.07;100334.97;5126989;28;20020;-61
2023/09/28 08:16:58;;;;;;;11.18;5.45;;;;;;;17.53;85.93;100329.97;5127209;28;20419;-61
2023/09/28 08:19:24;;;;;;;11.93;5.82;;;;;;;17.58;85.74;100314.06;5126706;28;20026;-60
2023/09/28 08:21:49;;;;;;;6.35;5.22;;;;;;;17.57;86.15;100318.44;5108220;28;20026;-60
2023/09/28 08:24:14;;;;;;;5.88;3.63;;;;;;;17.83;84.34;100320.94;5126392;28;20027;-60
2023/09/28 08:26:40;;;;;;;5.53;4.85;;;;;;;17.75;85.13;100328.28;5125455;28;20027;-60
2023/09/28 08:29:06;;;;;;;8.88;6.78;;;;;;;17.75;85.39;100329.13;5106971;28;20027;-60
2023/09/28 08:31:32;;;;;;;2.58;2.38;;;;;;;17.89;84.88;100331.19;5126304;28;20019;-61
2023/09/28 08:34:00;;;;;;;9.65;5.95;;;;;;;17.94;83.80;100339.75;5124910;28;20023;-60
2023/09/28 08:36:30;;;;;;;5.93;3.58;;;;;;;18.00;84.12;100330.78;5124825;28;20036;-61
2023/09/28 08:38:56;;;;;;;8.00;4.97;;;;;;;17.93;84.51;100334.56;5124443;28;20023;-61
2023/09/28 08:41:31;;;;;;;5.60;5.03;;;;;;;18.12;83.40;100336.44;5091068;28;20028;-61
2023/09/28 08:44:06;;;;;;;12.93;7.05;;;;;;;18.07;83.31;100328.72;5130521;22;20409;-63
2023/09/28 08:46:38;;;;;;;18.35;7.43;;;;;;;17.97;84.53;100341.41;5126664;28;20057;-64
2023/09/28 08:49:07;;;;;;;8.75;5.00;;;;;;;18.08;84.11;100347.06;5126472;28;20036;-63
2023/09/28 08:51:37;;;;;;;10.43;6.18;;;;;;;18.21;83.34;100336.09;5126086;28;20075;-63
2023/09/28 08:54:05;;;;;;;5.28;4.30;;;;;;;18.16;83.11;100338.06;5126359;28;20023;-64
2023/09/28 08:56:39;;;;;;;9.50;6.18;;;;;;;18.18;83.48;100317.81;5129606;22;20032;-64
2023/09/28 08:59:05;;;;;;;5.38;3.65;;;;;;;18.24;83.05;100314.94;5124912;22;20047;-63
2023/09/28 09:01:34;;;;;;;11.32;6.65;;;;;;;18.20;83.54;100314.22;5125682;28;20019;-63
2023/09/28 09:04:00;;;;;;;5.68;4.40;;;;;;;18.37;83.26;100319.69;5126128;28;20027;-64
2023/09/28 09:06:29;;;;;;;9.57;6.63;;;;;;;18.63;81.07;100326.44;5126093;28;20311;-64
2023/09/28 09:09:00;;;;;;;6.85;6.00;;;;;;;18.58;81.26;100318.75;5125803;28;20077;-64
2023/09/28 09:11:28;;;;;;;5.93;4.22;;;;;;;18.71;81.48;100318.19;5107887;28;20080;-63
2023/09/28 09:13:54;;;;;;;6.65;3.30;;;;;;;19.05;80.45;100311.44;5125536;28;20059;-63
2023/09/28 09:16:24;;;;;;;8.43;6.78;;;;;;;19.20;80.31;100309.06;5125593;28;20103;-63
2023/09/28 09:18:50;;;;;;;6.93;3.85;;;;;;;19.73;77.51;100301.28;5125977;28;20468;-64
2023/09/28 09:21:16;;;;;;;8.93;7.10;;;;;;;19.88;77.03;100286.53;5128019;22;20052;-64
2023/09/28 09:23:42;;;;;;;10.77;6.25;;;;;;;20.08;76.67;100297.88;5093175;23;20424;-61
2023/09/28 09:26:20;;;;;;;10.23;5.53;;;;;;;20.45;74.67;100303.06;5105291;28;20076;-62
2023/09/28 09:28:48;;;;;;;15.13;6.88;;;;;;;20.66;73.25;100284.41;5111943;22;20066;-64
2023/09/28 09:31:14;;;;;;;7.90;7.03;;;;;;;20.59;73.47;100280.41;5106979;23;20083;-63
2023/09/28 09:33:43;;;;;;;9.40;5.95;;;;;;;20.46;73.27;100298.63;5105346;28;20048;-64
2023/09/28 09:36:08;;;;;;;6.25;4.40;;;;;;;20.23;73.16;100298.88;5103651;28;20050;-64
2023/09/28 09:38:33;;;;;;;7.35;4.50;;;;;;;19.92;73.61;100289.88;5105171;28;20028;-64
2023/09/28 09:41:04;;;;;;;5.25;4.75;;;;;;;19.80;74.07;100307.97;5105147;28;20115;-65
2023/09/28 09:43:34;;;;;;;8.63;6.30;;;;;;;19.57;75.38;100302.03;5103681;28;20161;-64
2023/09/28 09:46:09;;;;;;;10.40;6.80;;;;;;;19.66;75.62;100289.38;5125681;28;20507;-64
2023/09/28 09:48:41;;;;;;;10.73;6.57;;;;;;;19.67;75.56;100299.81;5125374;28;20057;-63
2023/09/28 09:51:15;;;;;;;10.57;7.32;;;;;;;19.68;75.23;100288.34;5125481;28;20020;-63
2023/09/28 09:53:45;;;;;;;10.98;7.43;;;;;;;19.71;75.19;100297.91;5107140;28;20058;-64
2023/09/28 09:56:13;;;;;;;8.32;5.30;;;;;;;19.64;75.73;100291.22;5106755;28;20023;-64
2023/09/28 09:58:47;;;;;;;5.53;4.43;;;;;;;19.72;75.11;100285.56;5125213;28;20087;-63
2023/09/28 10:01:13;;;;;;;9.48;6.78;;;;;;;19.68;75.77;100284.88;5111883;22;20137;-66
2023/09/28 10:03:42;;;;;;;10.50;6.50;;;;;;;19.70;75.06;100280.38;5112476;22;20067;-66
2023/09/28 10:06:09;;;;;;;13.07;6.20;;;;;;;19.61;75.78;100281.69;5109058;28;20504;-65
2023/09/28 10:08:35;;;;;;;5.72;4.35;;;;;;;19.67;75.76;100280.53;5109476;28;20077;-64
2023/09/28 10:11:04;;;;;;;7.05;4.60;;;;;;;19.79;74.87;100282.56;5108579;28;20079;-64
2023/09/28 10:13:31;;;;;;;8.50;5.70;;;;;;;19.90;75.48;100286.47;5107381;28;20012;-64
2023/09/28 10:16:01;;;;;;;12.38;5.35;;;;;;;20.41;74.75;100289.19;5107548;28;20054;-63
2023/09/28 10:18:29;;;;;;;8.38;5.50;;;;;;;20.64;74.27;100296.84;5108846;28;20024;-63
2023/09/28 10:20:55;;;;;;;12.05;6.65;;;;;;;21.33;73.93;100296.69;5108982;28;20024;-63
2023/09/28 10:23:24;;;;;;;10.63;6.13;;;;;;;21.89;72.05;100295.34;5108959;28;20041;-64
2023/09/28 10:29:00;;;;;;;6.97;6.25;;;;;;;22.45;70.08;100297.38;5113952;22;20052;-64
2023/09/28 10:31:28;;;;;;;10.35;7.07;;;;;;;22.68;68.29;100303.09;5098427;23;20068;-61
2023/09/28 10:33:59;;;;;;;9.05;6.22;;;;;;;22.69;69.37;100293.34;5108668;28;20154;-60
2023/09/28 10:36:26;;;;;;;9.50;6.57;;;;;;;22.76;67.37;100294.69;5090021;28;20058;-60
2023/09/28 10:39:15;;;;;;;6.60;5.93;;;;;;;22.68;67.57;100292.53;5090198;28;20042;-61
2023/09/28 10:41:45;;;;;;;8.63;6.63;;;;;;;23.24;66.76;100289.03;5108319;28;20039;-60
2023/09/28 10:44:21;;;;;;;10.00;6.13;;;;;;;23.73;65.63;100281.53;5089889;28;20066;-60
2023/09/28 10:46:48;;;;;;;11.68;6.22;;;;;;;24.47;64.41;100280.16;5108331;28;20058;-61
2023/09/28 10:49:28;;;;;;;8.95;6.32;;;;;;;24.56;63.01;100291.94;5108390;28;20083;-61
2023/09/28 10:51:57;;;;;;;8.10;6.22;;;;;;;24.47;61.66;100284.63;5108283;28;20185;-60
2023/09/28 10:54:24;;;;;;;7.82;5.10;;;;;;;24.71;61.68;100286.53;5107929;28;20028;-60
2023/09/28 10:56:50;;;;;;;11.90;6.32;;;;;;;24.90;59.06;100291.41;5108069;28;20024;-60
2023/09/28 10:59:18;;;;;;;9.90;6.80;;;;;;;24.61;60.15;100288.97;5107643;28;20079;-61
2023/09/28 11:01:48;;;;;;;12.20;5.20;;;;;;;24.64;59.63;100278.13;5107722;28;20075;-60
2023/09/28 11:04:15;;;;;;;5.88;4.55;;;;;;;25.07;57.99;100290.19;5100566;22;20069;-64
2023/09/28 11:06:43;;;;;;;7.80;5.93;;;;;;;25.14;57.44;100282.63;5102470;23;20512;-64
2023/09/28 11:09:13;;;;;;;8.63;6.10;;;;;;;24.76;58.35;100293.19;5106132;28;20448;-63
2023/09/28 11:11:40;;;;;;;6.28;4.78;;;;;;;24.79;59.14;100299.25;5105582;28;20043;-64
2023/09/28 11:14:06;;;;;;;8.70;5.88;;;;;;;25.78;57.92;100303.75;5111945;22;20048;-63
2023/09/28 11:16:35;;;;;;;6.85;5.70;;;;;;;25.81;55.82;100314.16;5105811;28;20031;-63
2023/09/28 11:19:01;;;;;;;8.02;5.28;;;;;;;24.93;55.94;100309.78;5105915;28;20084;-64
2023/09/28 11:21:28;;;;;;;6.85;5.55;;;;;;;24.13;57.43;100323.09;5105816;28;20047;-64
2023/09/28 11:23:54;;;;;;;10.70;6.25;;;;;;;23.46;58.91;100323.91;5105805;28;20020;-64